首页
METAR-TAF:

METAR-TAF

机场 :

Lydd, 英格兰

纬度: 50-57N, 经度: 000-56E, 海拔: 3米

当前天气观测

该预报发布于35分钟前的15:50 UTC
风速17节,风向西北
温度 15°C
湿度 48%
气压 997 hPa
能见度10公里或以上

METAR: EGMD 051550Z AUTO 31017KT 9999 NCD 15/04 Q0997

时间: 17:25 (16:25 UTC)

预报

该预报发布于2小时和28分钟前的13:57 UTC
预报有效从05日的 15点(UTC)到 05日的 24点(UTC)
风速17节,风向西转西北
能见度10公里或以上
散云层高于4000英尺
短暂存在
从 05日的 15点(UTC)到 05日的 21点(UTC)
风速20节,风向西转西北,有时为30节阵风
能見度: 7000
阵雨

TAF: EGMD 051357Z 0515/0524 29017KT 9999 SCT040 TEMPO 0515/0521 30020G30KT 7000 SHRA

超过4000个机场的气象观测和天气预报(METAR&TAF报告)。

可查询的气象台以黄色和红色小点在地图上表示。

将鼠标移到小点上方,可查看气象台名称。

然后点击查看天气观测和预报。

如需切换地图:点击带黑十字的绿色按钮放大地图;点击带横线的绿色按钮缩小地图;或者点击绿色箭头查看邻近地区的地图。


METAR-TAF: